Time;durP1;ratioP1;P1;durP2;ratioP2;P2;SDS_P1;SDS_P2;PMS_P1;PMS_P2;Temp;Humidity;BMP_temperature;BMP_pressure;BME280_temperature;BME280_humidity;BME280_pressure;Samples;Min_cycle;Max_cycle;Signal;HPM_P1;HPM_P2
2022/05/26 00:00:47;;;;;;;;;;;;;;;;;;2098106;28;19919;-88
2022/05/26 00:01:49;;;;;;;;;;;;;;;;;;2098046;28;19916;-89
2022/05/26 00:02:50;;;;;;;;;;;;;;;;;;2098134;28;19924;-90
2022/05/26 00:03:50;;;;;;;;;;;;;;;;;;2098143;28;19912;-88
2022/05/26 00:04:53;;;;;;;;;;;;;;;;;;2097956;28;19912;-90
2022/05/26 00:05:54;;;;;;;;;;;;;;;;;;2097913;28;19952;-89
2022/05/26 00:06:55;;;;;;;;;;;;;;;;;;2088975;28;19917;-89
2022/05/26 00:07:58;;;;;;;;;;;;;;;;;;2089496;28;19923;-88
2022/05/26 00:08:59;;;;;;;;;;;;;;;;;;2088987;28;19952;-89
2022/05/26 00:10:02;;;;;;;;;;;;;;;;;;2089048;28;19913;-88
2022/05/26 00:11:04;;;;;;;;;;;;;;;;;;2089007;28;19917;-91
2022/05/26 00:12:04;;;;;;;;;;;;;;;;;;2089613;28;19920;-89
2022/05/26 00:13:05;;;;;;;;;;;;;;;;;;2097845;28;19920;-89
2022/05/26 00:14:08;;;;;;;;;;;;;;;;;;2097772;28;19955;-91
2022/05/26 00:15:08;;;;;;;;;;;;;;;;;;2089156;28;20017;-87
2022/05/26 00:16:09;;;;;;;;;;;;;;;;;;2080713;28;19991;-87
2022/05/26 00:17:12;;;;;;;;;;;;;;;;;;2089148;28;19917;-88
2022/05/26 00:18:20;;;;;;;;;;;;;;;;;;2089369;28;20004;-83
2022/05/26 00:19:20;;;;;;;;;;;;;;;;;;2090740;28;19913;-84
2022/05/26 00:20:20;;;;;;;;;;;;;;;;;;2097870;28;19913;-89
2022/05/26 00:21:21;;;;;;;;;;;;;;;;;;2088968;28;20024;-90
2022/05/26 00:22:21;;;;;;;;;;;;;;;;;;2089323;28;19924;-90
2022/05/26 00:23:21;;;;;;;;;;;;;;;;;;2088932;28;19925;-89
2022/05/26 00:24:21;;;;;;;;;;;;;;;;;;2089447;28;19970;-91
2022/05/26 00:25:22;;;;;;;;;;;;;;;;;;2097952;28;20361;-89
2022/05/26 00:26:23;;;;;;;;;;;;;;;;;;2089334;28;19917;-88
2022/05/26 00:27:23;;;;;;;;;;;;;;;;;;2088824;28;19924;-90
2022/05/26 00:28:23;;;;;;;;;;;;;;;;;;2098023;28;19919;-90
2022/05/26 00:29:24;;;;;;;;;;;;;;;;;;2097639;28;19922;-89
2022/05/26 00:30:26;;;;;;;;;;;;;;;;;;2097747;28;19976;-88
2022/05/26 00:31:26;;;;;;;;;;;;;;;;;;2089097;28;20019;-90
2022/05/26 00:32:27;;;;;;;;;;;;;;;;;;2080688;28;19945;-90
2022/05/26 00:33:30;;;;;;;;;;;;;;;;;;2088977;28;19987;-89
2022/05/26 00:34:30;;;;;;;;;;;;;;;;;;2097756;28;20401;-90
2022/05/26 00:35:34;;;;;;;;;;;;;;;;;;2097931;28;19912;-90
2022/05/26 00:36:38;;;;;;;;;;;;;;;;;;2097800;28;19913;-90
2022/05/26 00:37:38;;;;;;;;;;;;;;;;;;2097791;28;19916;-89
2022/05/26 00:38:39;;;;;;;;;;;;;;;;;;2097682;28;20003;-90
2022/05/26 00:39:40;;;;;;;;;;;;;;;;;;2097733;28;20281;-89
2022/05/26 00:40:43;;;;;;;;;;;;;;;;;;2089165;28;19912;-89
2022/05/26 00:41:47;;;;;;;;;;;;;;;;;;2089151;28;20119;-88
2022/05/26 00:42:49;;;;;;;;;;;;;;;;;;2089343;28;19913;-88
2022/05/26 00:43:55;;;;;;;;;;;;;;;;;;2097894;28;19912;-89
2022/05/26 00:44:58;;;;;;;;;;;;;;;;;;2097863;28;19912;-89
2022/05/26 00:46:11;;;;;;;;;;;;;;;;;;2097644;28;19916;-90
2022/05/26 00:47:17;;;;;;;;;;;;;;;;;;2100313;28;19917;-87
2022/05/26 00:48:19;;;;;;;;;;;;;;;;;;2097923;28;20269;-87
2022/05/26 00:49:30;;;;;;;;;;;;;;;;;;2098274;28;20409;-87
2022/05/26 00:50:31;;;;;;;;;;;;;;;;;;2099231;28;19982;-88
2022/05/26 00:51:36;;;;;;;;;;;;;;;;;;2090623;28;20294;-87
2022/05/26 00:52:42;;;;;;;;;;;;;;;;;;2091184;28;20004;-87
2022/05/26 00:53:45;;;;;;;;;;;;;;;;;;2090467;28;19917;-86
2022/05/26 00:54:46;;;;;;;;;;;;;;;;;;2082627;28;19924;-86
2022/05/26 00:55:55;;;;;;;;;;;;;;;;;;2090653;28;20349;-86
2022/05/26 00:57:04;;;;;;;;;;;;;;;;;;2091655;28;19913;-86
2022/05/26 00:58:07;;;;;;;;;;;;;;;;;;2090502;28;19952;-86
2022/05/26 00:59:27;;;;;;;;;;;;;;;;;;2090734;28;20352;-85
2022/05/26 01:00:31;;;;;;;;;;;;;;;;;;2090550;28;19971;-86
2022/05/26 01:01:31;;;;;;;;;;;;;;;;;;2090816;28;19917;-87
2022/05/26 01:02:36;;;;;;;;;;;;;;;;;;2090447;28;19970;-88
2022/05/26 01:03:39;;;;;;;;;;;;;;;;;;2093791;28;19913;-87
2022/05/26 01:04:43;;;;;;;;;;;;;;;;;;2099161;28;19912;-87
2022/05/26 01:05:50;;;;;;;;;;;;;;;;;;2099485;28;20336;-86
2022/05/26 01:07:10;;;;;;;;;;;;;;;;;;2099097;28;19917;-85
2022/05/26 01:08:14;;;;;;;;;;;;;;;;;;2098818;28;19917;-86
2022/05/26 01:09:15;;;;;;;;;;;;;;;;;;2099139;28;19913;-87
2022/05/26 01:10:16;;;;;;;;;;;;;;;;;;2090343;28;19917;-85
2022/05/26 01:11:16;;;;;;;;;;;;;;;;;;2090405;28;19924;-86
2022/05/26 01:12:16;;;;;;;;;;;;;;;;;;2099179;28;20256;-88
2022/05/26 01:13:17;;;;;;;;;;;;;;;;;;2090304;28;19981;-86
2022/05/26 01:14:20;;;;;;;;;;;;;;;;;;2090570;28;19962;-86
2022/05/26 01:15:21;;;;;;;;;;;;;;;;;;2099043;28;20280;-84
2022/05/26 01:16:29;;;;;;;;;;;;;;;;;;2098998;28;20327;-85
2022/05/26 01:17:48;;;;;;;;;;;;;;;;;;2099090;28;19967;-87
2022/05/26 01:18:51;;;;;;;;;;;;;;;;;;2090138;28;20376;-88
2022/05/26 01:20:01;;;;;;;;;;;;;;;;;;2090777;28;19942;-87
2022/05/26 01:21:01;;;;;;;;;;;;;;;;;;2099006;28;19913;-86
2022/05/26 01:22:15;;;;;;;;;;;;;;;;;;2099021;28;19916;-85
2022/05/26 01:23:27;;;;;;;;;;;;;;;;;;2099079;28;19924;-86
2022/05/26 01:24:27;;;;;;;;;;;;;;;;;;2099008;28;19912;-87
2022/05/26 01:25:40;;;;;;;;;;;;;;;;;;2098989;28;20011;-86
2022/05/26 01:26:58;;;;;;;;;;;;;;;;;;2090333;28;19986;-86
2022/05/26 01:27:58;;;;;;;;;;;;;;;;;;2092766;28;19924;-86
2022/05/26 01:29:11;;;;;;;;;;;;;;;;;;2099275;28;19967;-86
2022/05/26 01:30:16;;;;;;;;;;;;;;;;;;2098824;28;20588;-86
2022/05/26 01:31:35;;;;;;;;;;;;;;;;;;2099233;28;19935;-85
2022/05/26 01:32:47;;;;;;;;;;;;;;;;;;2098814;28;19912;-87
2022/05/26 01:33:52;;;;;;;;;;;;;;;;;;2099027;28;19923;-85
2022/05/26 01:34:59;;;;;;;;;;;;;;;;;;2099268;28;19916;-86
2022/05/26 01:36:15;;;;;;;;;;;;;;;;;;2098845;28;20259;-86
2022/05/26 01:37:15;;;;;;;;;;;;;;;;;;2098843;28;19919;-85
2022/05/26 01:38:31;;;;;;;;;;;;;;;;;;2090059;28;19913;-85
2022/05/26 01:39:41;;;;;;;;;;;;;;;;;;2084113;28;20537;-86
2022/05/26 01:40:41;;;;;;;;;;;;;;;;;;2091545;28;20437;-86
2022/05/26 01:41:52;;;;;;;;;;;;;;;;;;2090118;28;19917;-86
2022/05/26 01:42:58;;;;;;;;;;;;;;;;;;2091482;28;19924;-85
2022/05/26 01:44:06;;;;;;;;;;;;;;;;;;2098950;28;20278;-86
2022/05/26 01:45:20;;;;;;;;;;;;;;;;;;2098797;28;19912;-85
2022/05/26 01:46:36;;;;;;;;;;;;;;;;;;2098739;28;19923;-85
2022/05/26 01:47:43;;;;;;;;;;;;;;;;;;2098813;28;19924;-86
2022/05/26 01:48:56;;;;;;;;;;;;;;;;;;2099039;28;19912;-85
2022/05/26 01:50:16;;;;;;;;;;;;;;;;;;2099096;28;19916;-85
2022/05/26 01:51:20;;;;;;;;;;;;;;;;;;2097572;28;19912;-84
2022/05/26 01:52:35;;;;;;;;;;;;;;;;;;2098728;28;19913;-85
2022/05/26 01:53:38;;;;;;;;;;;;;;;;;;2090027;28;19998;-85
2022/05/26 01:54:53;;;;;;;;;;;;;;;;;;2081987;28;20397;-86
2022/05/26 01:55:53;;;;;;;;;;;;;;;;;;2092000;28;20352;-86
2022/05/26 01:56:53;;;;;;;;;;;;;;;;;;2089856;28;20011;-85
2022/05/26 01:58:15;;;;;;;;;;;;;;;;;;2081806;28;19924;-86
2022/05/26 01:59:20;;;;;;;;;;;;;;;;;;2084565;28;20101;-84
2022/05/26 02:00:20;;;;;;;;;;;;;;;;;;2090479;28;19912;-86
2022/05/26 02:01:23;;;;;;;;;;;;;;;;;;2098777;28;19913;-88
2022/05/26 02:02:25;;;;;;;;;;;;;;;;;;2098732;28;19913;-88
2022/05/26 02:03:27;;;;;;;;;;;;;;;;;;2098782;28;20016;-86
2022/05/26 02:04:33;;;;;;;;;;;;;;;;;;2090003;28;20376;-85
2022/05/26 02:05:36;;;;;;;;;;;;;;;;;;2090567;28;20003;-87
2022/05/26 02:06:38;;;;;;;;;;;;;;;;;;2098848;28;19927;-86
2022/05/26 02:07:52;;;;;;;;;;;;;;;;;;2098872;28;20559;-86
2022/05/26 02:08:55;;;;;;;;;;;;;;;;;;2090296;28;19917;-85
2022/05/26 02:09:57;;;;;;;;;;;;;;;;;;2082193;28;20011;-86
2022/05/26 02:11:06;;;;;;;;;;;;;;;;;;2089874;28;19924;-86
2022/05/26 02:12:09;;;;;;;;;;;;;;;;;;2091390;28;19912;-85
2022/05/26 02:13:12;;;;;;;;;;;;;;;;;;2098892;28;19923;-86
2022/05/26 02:14:14;;;;;;;;;;;;;;;;;;2098757;28;19917;-87
2022/05/26 02:15:16;;;;;;;;;;;;;;;;;;2090192;28;20267;-86
2022/05/26 02:16:16;;;;;;;;;;;;;;;;;;2090102;28;19912;-86
2022/05/26 02:17:19;;;;;;;;;;;;;;;;;;2098663;28;19912;-86
2022/05/26 02:18:27;;;;;;;;;;;;;;;;;;2098773;28;20270;-86
2022/05/26 02:19:31;;;;;;;;;;;;;;;;;;2098864;28;19912;-85
2022/05/26 02:20:40;;;;;;;;;;;;;;;;;;2098709;28;19952;-85
2022/05/26 02:21:49;;;;;;;;;;;;;;;;;;2098881;28;20412;-85
2022/05/26 02:23:02;;;;;;;;;;;;;;;;;;2089942;28;19939;-85
2022/05/26 02:24:09;;;;;;;;;;;;;;;;;;2091914;28;19917;-85
2022/05/26 02:25:16;;;;;;;;;;;;;;;;;;2090071;28;19944;-85
2022/05/26 02:26:16;;;;;;;;;;;;;;;;;;2090811;28;19913;-85
2022/05/26 02:27:19;;;;;;;;;;;;;;;;;;2089582;28;20378;-86
2022/05/26 02:28:19;;;;;;;;;;;;;;;;;;2089527;28;19995;-86
2022/05/26 02:30:42;;;;;;;;;;;;;;;;;;2098551;28;19912;-89
2022/05/26 02:31:43;;;;;;;;;;;;;;;;;;2089706;28;19909;-89
2022/05/26 02:32:45;;;;;;;;;;;;;;;;;;2081314;28;19923;-88
2022/05/26 02:33:46;;;;;;;;;;;;;;;;;;2081679;28;20298;-90
2022/05/26 02:34:48;;;;;;;;;;;;;;;;;;2089561;28;19952;-88
2022/05/26 02:35:50;;;;;;;;;;;;;;;;;;2081590;28;19913;-89
2022/05/26 02:36:52;;;;;;;;;;;;;;;;;;2089939;28;19976;-88
2022/05/26 02:37:54;;;;;;;;;;;;;;;;;;2098444;28;19998;-89
2022/05/26 02:38:54;;;;;;;;;;;;;;;;;;2089470;28;19924;-87
2022/05/26 02:39:54;;;;;;;;;;;;;;;;;;2089767;28;20015;-87
2022/05/26 02:40:55;;;;;;;;;;;;;;;;;;2098212;28;19997;-90
2022/05/26 02:41:56;;;;;;;;;;;;;;;;;;2089412;28;20409;-91
2022/05/26 02:42:58;;;;;;;;;;;;;;;;;;2089982;28;19913;-89
2022/05/26 02:43:59;;;;;;;;;;;;;;;;;;2089887;28;19967;-89
2022/05/26 02:45:00;;;;;;;;;;;;;;;;;;2089602;28;20437;-87
2022/05/26 02:46:00;;;;;;;;;;;;;;;;;;2098247;28;19912;-92
2022/05/26 02:47:00;;;;;;;;;;;;;;;;;;2098445;28;19913;-93
2022/05/26 02:48:00;;;;;;;;;;;;;;;;;;2098164;28;19931;-90
2022/05/26 02:49:01;;;;;;;;;;;;;;;;;;2089479;28;19913;-90
2022/05/26 02:50:07;;;;;;;;;;;;;;;;;;2089414;28;20219;-88
2022/05/26 02:51:15;;;;;;;;;;;;;;;;;;2089432;28;19913;-86
2022/05/26 02:52:41;;;;;;;;;;;;;;;;;;2082254;28;20381;-85
2022/05/26 02:53:44;;;;;;;;;;;;;;;;;;2061424;28;19975;-85
2022/05/26 02:54:47;;;;;;;;;;;;;;;;;;2090001;28;20394;-87
2022/05/26 02:55:47;;;;;;;;;;;;;;;;;;2089419;28;19913;-90
2022/05/26 02:57:00;;;;;;;;;;;;;;;;;;2089594;28;19931;-87
2022/05/26 02:58:21;;;;;;;;;;;;;;;;;;2089619;28;19921;-94
2022/05/26 02:59:36;;;;;;;;;;;;;;;;;;2089513;28;19916;-86
2022/05/26 03:00:55;;;;;;;;;;;;;;;;;;2093591;28;19927;-88
2022/05/26 03:02:21;;;;;;;;;;;;;;;;;;2089259;28;19982;-88
2022/05/26 03:03:22;;;;;;;;;;;;;;;;;;2088951;28;19913;-89
2022/05/26 03:04:25;;;;;;;;;;;;;;;;;;2089274;28;19963;-90
2022/05/26 03:05:34;;;;;;;;;;;;;;;;;;2089920;28;19913;-88
2022/05/26 03:06:39;;;;;;;;;;;;;;;;;;2089177;28;19913;-85
2022/05/26 03:07:42;;;;;;;;;;;;;;;;;;2090264;28;19996;-87
2022/05/26 03:08:43;;;;;;;;;;;;;;;;;;2098193;28;19924;-85
2022/05/26 03:09:44;;;;;;;;;;;;;;;;;;2089537;28;20371;-86
2022/05/26 03:10:48;;;;;;;;;;;;;;;;;;2081005;28;19987;-86
2022/05/26 03:11:50;;;;;;;;;;;;;;;;;;2081227;28;20179;-88
2022/05/26 03:12:53;;;;;;;;;;;;;;;;;;2089216;28;19913;-87
2022/05/26 03:13:53;;;;;;;;;;;;;;;;;;2089861;28;19919;-85
2022/05/26 03:14:54;;;;;;;;;;;;;;;;;;2098166;28;19927;-86
2022/05/26 03:15:54;;;;;;;;;;;;;;;;;;2097924;28;19944;-85
2022/05/26 03:16:55;;;;;;;;;;;;;;;;;;2097887;28;19923;-86
2022/05/26 03:17:55;;;;;;;;;;;;;;;;;;2089195;28;19920;-85
2022/05/26 03:18:58;;;;;;;;;;;;;;;;;;2089290;28;20444;-86
2022/05/26 03:19:58;;;;;;;;;;;;;;;;;;2098197;28;19912;-87
2022/05/26 03:21:02;;;;;;;;;;;;;;;;;;2098192;28;19912;-86
2022/05/26 03:22:03;;;;;;;;;;;;;;;;;;2098358;28;19978;-86
2022/05/26 03:23:03;;;;;;;;;;;;;;;;;;2089131;28;19925;-85
2022/05/26 03:24:04;;;;;;;;;;;;;;;;;;2081070;28;20433;-86
2022/05/26 03:25:05;;;;;;;;;;;;;;;;;;2089483;28;20296;-87
2022/05/26 03:26:05;;;;;;;;;;;;;;;;;;2098080;28;20520;-86
2022/05/26 03:27:06;;;;;;;;;;;;;;;;;;2089013;28;19912;-85
2022/05/26 03:28:06;;;;;;;;;;;;;;;;;;2089199;28;19952;-89
2022/05/26 03:29:07;;;;;;;;;;;;;;;;;;2088996;28;20011;-88
2022/05/26 03:30:07;;;;;;;;;;;;;;;;;;2081065;28;20521;-86
2022/05/26 03:31:08;;;;;;;;;;;;;;;;;;2089235;28;19913;-87
2022/05/26 03:32:08;;;;;;;;;;;;;;;;;;2089277;28;20431;-86
2022/05/26 03:33:09;;;;;;;;;;;;;;;;;;2089116;28;19923;-86
2022/05/26 03:40:56;;;;;;;;;;;;;;;;;;2098474;28;20042;-86
2022/05/26 03:41:57;;;;;;;;;;;;;;;;;;2098187;28;19913;-85
2022/05/26 03:42:59;;;;;;;;;;;;;;;;;;2098013;28;20356;-85
2022/05/26 03:44:00;;;;;;;;;;;;;;;;;;2098272;28;20278;-84
2022/05/26 03:45:02;;;;;;;;;;;;;;;;;;2089401;28;19999;-85
2022/05/26 03:46:02;;;;;;;;;;;;;;;;;;2081272;28;20109;-88
2022/05/26 03:47:03;;;;;;;;;;;;;;;;;;2089438;28;20003;-85
2022/05/26 03:48:04;;;;;;;;;;;;;;;;;;2097784;28;20349;-87
2022/05/26 03:49:05;;;;;;;;;;;;;;;;;;2089168;28;20419;-85
2022/05/26 03:50:06;;;;;;;;;;;;;;;;;;2089225;28;20000;-85
2022/05/26 03:51:07;;;;;;;;;;;;;;;;;;2098239;28;19920;-85
2022/05/26 03:52:08;;;;;;;;;;;;;;;;;;2098067;28;19924;-84
2022/05/26 03:53:08;;;;;;;;;;;;;;;;;;2098123;28;20054;-86
2022/05/26 03:54:08;;;;;;;;;;;;;;;;;;2088990;28;19913;-85
2022/05/26 03:55:09;;;;;;;;;;;;;;;;;;2081138;28;20010;-84
2022/05/26 03:56:09;;;;;;;;;;;;;;;;;;2089043;28;20208;-86
2022/05/26 03:57:09;;;;;;;;;;;;;;;;;;2097817;28;19951;-85
2022/05/26 03:58:10;;;;;;;;;;;;;;;;;;2089245;28;19924;-85
2022/05/26 03:59:10;;;;;;;;;;;;;;;;;;2089275;28;20352;-85
2022/05/26 04:00:10;;;;;;;;;;;;;;;;;;2088907;28;19912;-87
2022/05/26 04:01:11;;;;;;;;;;;;;;;;;;2080898;28;20446;-90
2022/05/26 04:02:11;;;;;;;;;;;;;;;;;;2080882;28;20330;-87
2022/05/26 04:03:12;;;;;;;;;;;;;;;;;;2089496;28;19955;-87
2022/05/26 04:04:13;;;;;;;;;;;;;;;;;;2097720;28;19921;-87
2022/05/26 04:05:14;;;;;;;;;;;;;;;;;;2098240;28;19923;-86
2022/05/26 04:06:15;;;;;;;;;;;;;;;;;;2098191;28;19916;-85
2022/05/26 04:07:15;;;;;;;;;;;;;;;;;;2097694;28;19924;-87
2022/05/26 04:08:16;;;;;;;;;;;;;;;;;;2089038;28;19913;-84
2022/05/26 04:09:16;;;;;;;;;;;;;;;;;;2089173;28;19913;-87
2022/05/26 04:10:16;;;;;;;;;;;;;;;;;;2088927;28;19913;-85
2022/05/26 04:11:17;;;;;;;;;;;;;;;;;;2088886;28;19982;-88
2022/05/26 04:12:18;;;;;;;;;;;;;;;;;;2089277;28;19917;-88
2022/05/26 04:13:18;;;;;;;;;;;;;;;;;;2089226;28;19913;-84
2022/05/26 04:14:21;;;;;;;;;;;;;;;;;;2089227;28;19988;-85
2022/05/26 04:15:21;;;;;;;;;;;;;;;;;;2088883;28;19913;-84
2022/05/26 04:16:22;;;;;;;;;;;;;;;;;;2089160;28;19912;-88
2022/05/26 04:17:22;;;;;;;;;;;;;;;;;;2089177;28;19931;-84
2022/05/26 04:18:23;;;;;;;;;;;;;;;;;;2089171;28;19917;-83
2022/05/26 04:19:23;;;;;;;;;;;;;;;;;;2097647;28;19934;-86
2022/05/26 04:20:23;;;;;;;;;;;;;;;;;;2097825;28;19980;-85
2022/05/26 04:21:24;;;;;;;;;;;;;;;;;;2097874;28;20338;-84
2022/05/26 04:22:24;;;;;;;;;;;;;;;;;;2098282;28;19959;-85
2022/05/26 04:23:32;;;;;;;;;;;;;;;;;;2100812;28;19972;-86
2022/05/26 04:24:32;;;;;;;;;;;;;;;;;;2094269;28;19943;-89
2022/05/26 04:25:32;;;;;;;;;;;;;;;;;;2082674;28;20023;-86
2022/05/26 04:26:32;;;;;;;;;;;;;;;;;;2090872;28;20309;-85
2022/05/26 04:27:33;;;;;;;;;;;;;;;;;;2090456;28;20173;-85
2022/05/26 04:28:34;;;;;;;;;;;;;;;;;;2091039;28;20452;-86
2022/05/26 04:29:35;;;;;;;;;;;;;;;;;;2090658;28;19917;-87
2022/05/26 04:30:38;;;;;;;;;;;;;;;;;;2090769;28;19913;-88
2022/05/26 04:31:38;;;;;;;;;;;;;;;;;;2091126;28;19912;-86
2022/05/26 04:32:39;;;;;;;;;;;;;;;;;;2099534;28;20361;-85
2022/05/26 04:33:39;;;;;;;;;;;;;;;;;;2099594;28;19970;-85
2022/05/26 04:34:40;;;;;;;;;;;;;;;;;;2090890;28;20389;-84
2022/05/26 04:35:40;;;;;;;;;;;;;;;;;;2090876;28;19913;-87
2022/05/26 04:36:41;;;;;;;;;;;;;;;;;;2099360;28;19923;-86
2022/05/26 04:37:41;;;;;;;;;;;;;;;;;;2090587;28;20004;-86
2022/05/26 04:38:43;;;;;;;;;;;;;;;;;;2090510;28;19917;-87
2022/05/26 04:39:44;;;;;;;;;;;;;;;;;;2099413;28;19926;-86
2022/05/26 04:40:45;;;;;;;;;;;;;;;;;;2090302;28;19923;-85
2022/05/26 04:41:45;;;;;;;;;;;;;;;;;;2090800;28;19940;-86
2022/05/26 04:42:48;;;;;;;;;;;;;;;;;;2099350;28;19921;-85
2022/05/26 04:43:49;;;;;;;;;;;;;;;;;;2090747;28;19913;-86
2022/05/26 04:44:49;;;;;;;;;;;;;;;;;;2082114;28;19987;-88
2022/05/26 04:45:49;;;;;;;;;;;;;;;;;;2090477;28;19913;-86
2022/05/26 04:46:49;;;;;;;;;;;;;;;;;;2099420;28;20277;-86
2022/05/26 04:47:52;;;;;;;;;;;;;;;;;;2099369;28;19924;-85
2022/05/26 04:48:52;;;;;;;;;;;;;;;;;;2090419;28;20177;-89
2022/05/26 04:49:52;;;;;;;;;;;;;;;;;;2090773;28;20400;-86
2022/05/26 04:50:53;;;;;;;;;;;;;;;;;;2099152;28;19939;-87
2022/05/26 04:51:54;;;;;;;;;;;;;;;;;;2099459;28;19913;-86
2022/05/26 04:52:54;;;;;;;;;;;;;;;;;;2099639;28;20276;-87
2022/05/26 04:53:55;;;;;;;;;;;;;;;;;;2100202;28;19913;-88
2022/05/26 04:54:55;;;;;;;;;;;;;;;;;;2090524;28;19999;-86
2022/05/26 04:55:55;;;;;;;;;;;;;;;;;;2082217;28;19940;-87
2022/05/26 04:56:57;;;;;;;;;;;;;;;;;;2090474;28;19920;-84
2022/05/26 04:57:57;;;;;;;;;;;;;;;;;;2090509;28;19924;-88
2022/05/26 04:58:57;;;;;;;;;;;;;;;;;;2090532;28;20172;-89
2022/05/26 04:59:58;;;;;;;;;;;;;;;;;;2099349;28;20359;-87
2022/05/26 05:00:58;;;;;;;;;;;;;;;;;;2099295;28;19948;-85
2022/05/26 05:01:58;;;;;;;;;;;;;;;;;;2099073;28;20465;-84
2022/05/26 05:02:59;;;;;;;;;;;;;;;;;;2099115;28;19923;-85
2022/05/26 05:04:00;;;;;;;;;;;;;;;;;;2099186;28;19921;-88
2022/05/26 05:05:00;;;;;;;;;;;;;;;;;;2090261;28;19931;-85
2022/05/26 05:06:00;;;;;;;;;;;;;;;;;;2090045;28;19955;-86
2022/05/26 05:07:00;;;;;;;;;;;;;;;;;;2098451;28;19924;-86
2022/05/26 05:08:03;;;;;;;;;;;;;;;;;;2099230;28;20246;-87
2022/05/26 05:09:03;;;;;;;;;;;;;;;;;;2099076;28;19924;-83
2022/05/26 05:10:04;;;;;;;;;;;;;;;;;;2099154;28;19922;-86
2022/05/26 05:11:04;;;;;;;;;;;;;;;;;;2098894;28;20428;-89
2022/05/26 05:12:05;;;;;;;;;;;;;;;;;;2090312;28;19920;-87
2022/05/26 05:13:09;;;;;;;;;;;;;;;;;;2082168;28;20293;-86
2022/05/26 05:14:09;;;;;;;;;;;;;;;;;;2090335;28;19913;-87
2022/05/26 05:15:15;;;;;;;;;;;;;;;;;;2082119;28;19913;-88
2022/05/26 05:16:19;;;;;;;;;;;;;;;;;;2091148;28;20435;-88
2022/05/26 05:17:20;;;;;;;;;;;;;;;;;;2099277;28;19912;-88
2022/05/26 05:18:23;;;;;;;;;;;;;;;;;;2099479;28;20345;-88
2022/05/26 05:19:23;;;;;;;;;;;;;;;;;;2090330;28;19916;-85
2022/05/26 05:20:26;;;;;;;;;;;;;;;;;;2090475;28;20385;-85
2022/05/26 05:21:35;;;;;;;;;;;;;;;;;;2090490;28;20428;-86
2022/05/26 05:22:46;;;;;;;;;;;;;;;;;;2091733;28;19980;-85
2022/05/26 05:23:49;;;;;;;;;;;;;;;;;;2090365;28;20011;-86
2022/05/26 05:24:59;;;;;;;;;;;;;;;;;;2090664;28;19913;-86
2022/05/26 05:26:00;;;;;;;;;;;;;;;;;;2099118;28;19923;-86
2022/05/26 05:27:03;;;;;;;;;;;;;;;;;;2099051;28;19920;-86
2022/05/26 05:28:06;;;;;;;;;;;;;;;;;;2098842;28;19990;-85
2022/05/26 05:29:09;;;;;;;;;;;;;;;;;;2099047;28;20015;-86
2022/05/26 05:30:17;;;;;;;;;;;;;;;;;;2098944;28;20529;-87
2022/05/26 05:31:20;;;;;;;;;;;;;;;;;;2098779;28;19916;-86
2022/05/26 05:32:24;;;;;;;;;;;;;;;;;;2099085;28;20011;-86
2022/05/26 05:33:36;;;;;;;;;;;;;;;;;;2099171;28;19912;-86
2022/05/26 05:34:38;;;;;;;;;;;;;;;;;;2098881;28;19990;-86
2022/05/26 05:35:41;;;;;;;;;;;;;;;;;;2089529;28;20267;-86
2022/05/26 05:36:41;;;;;;;;;;;;;;;;;;2090223;28;19913;-85
2022/05/26 05:37:42;;;;;;;;;;;;;;;;;;2090242;28;20299;-84
2022/05/26 05:38:43;;;;;;;;;;;;;;;;;;2081927;28;19959;-85
2022/05/26 05:39:43;;;;;;;;;;;;;;;;;;2081880;28;19913;-85
2022/05/26 05:40:43;;;;;;;;;;;;;;;;;;2089917;28;19917;-86
2022/05/26 05:41:44;;;;;;;;;;;;;;;;;;2090155;28;19913;-85
2022/05/26 05:42:44;;;;;;;;;;;;;;;;;;2089940;28;19920;-86
2022/05/26 05:43:44;;;;;;;;;;;;;;;;;;2090330;28;19951;-87
2022/05/26 05:44:45;;;;;;;;;;;;;;;;;;2098754;28;19923;-85
2022/05/26 05:45:45;;;;;;;;;;;;;;;;;;2098938;28;19917;-85
2022/05/26 05:46:57;;;;;;;;;;;;;;;;;;2098721;28;19923;-85
2022/05/26 05:47:57;;;;;;;;;;;;;;;;;;2101612;28;20361;-86
2022/05/26 05:48:58;;;;;;;;;;;;;;;;;;2090252;28;19912;-85
2022/05/26 05:49:58;;;;;;;;;;;;;;;;;;2081933;28;19924;-86
2022/05/26 05:50:59;;;;;;;;;;;;;;;;;;2090023;28;20427;-86
2022/05/26 05:52:07;;;;;;;;;;;;;;;;;;2090305;28;19999;-85
2022/05/26 05:53:09;;;;;;;;;;;;;;;;;;2090950;28;20346;-87
2022/05/26 05:54:10;;;;;;;;;;;;;;;;;;2089922;28;19912;-84
2022/05/26 05:55:10;;;;;;;;;;;;;;;;;;2089969;28;19913;-87
2022/05/26 05:56:11;;;;;;;;;;;;;;;;;;2085105;28;19917;-87
2022/05/26 05:57:11;;;;;;;;;;;;;;;;;;2085420;28;19923;-88
2022/05/26 05:58:12;;;;;;;;;;;;;;;;;;2084299;28;19943;-86
2022/05/26 05:59:12;;;;;;;;;;;;;;;;;;2084925;28;19925;-84
2022/05/26 06:00:13;;;;;;;;;;;;;;;;;;2091426;28;19924;-83
2022/05/26 06:01:13;;;;;;;;;;;;;;;;;;2093067;28;20274;-83
2022/05/26 06:02:13;;;;;;;;;;;;;;;;;;2092606;28;19931;-82
2022/05/26 06:03:13;;;;;;;;;;;;;;;;;;2094368;28;20346;-82
2022/05/26 06:04:14;;;;;;;;;;;;;;;;;;2087115;28;20381;-82
2022/05/26 06:05:14;;;;;;;;;;;;;;;;;;2086432;28;19936;-81
2022/05/26 06:06:14;;;;;;;;;;;;;;;;;;2094429;28;19912;-81
2022/05/26 06:07:16;;;;;;;;;;;;;;;;;;2090377;28;19920;-82
2022/05/26 06:08:16;;;;;;;;;;;;;;;;;;2090553;28;19923;-82
2022/05/26 06:09:17;;;;;;;;;;;;;;;;;;2090434;28;19923;-81
2022/05/26 06:10:17;;;;;;;;;;;;;;;;;;2090434;28;20007;-80
2022/05/26 06:11:18;;;;;;;;;;;;;;;;;;2087527;28;19932;-83
2022/05/26 06:12:18;;;;;;;;;;;;;;;;;;2080919;28;19972;-82
2022/05/26 06:13:19;;;;;;;;;;;;;;;;;;2084461;28;19928;-81
2022/05/26 06:14:19;;;;;;;;;;;;;;;;;;2096795;28;19917;-81
2022/05/26 06:15:20;;;;;;;;;;;;;;;;;;2084085;28;19924;-82
2022/05/26 06:16:20;;;;;;;;;;;;;;;;;;2081734;28;20433;-84
2022/05/26 06:17:21;;;;;;;;;;;;;;;;;;2083988;28;19921;-86
2022/05/26 06:18:21;;;;;;;;;;;;;;;;;;2084512;28;19925;-85
2022/05/26 06:19:22;;;;;;;;;;;;;;;;;;2093151;28;20503;-83
2022/05/26 06:20:23;;;;;;;;;;;;;;;;;;2090492;28;19960;-86
2022/05/26 06:21:23;;;;;;;;;;;;;;;;;;2097853;28;19916;-84
2022/05/26 06:22:24;;;;;;;;;;;;;;;;;;2098693;28;20070;-84
2022/05/26 06:23:24;;;;;;;;;;;;;;;;;;2093638;28;19916;-80
2022/05/26 06:24:28;;;;;;;;;;;;;;;;;;2088391;28;19913;-79
2022/05/26 06:25:31;;;;;;;;;;;;;;;;;;2083302;28;19913;-80
2022/05/26 06:26:31;;;;;;;;;;;;;;;;;;2090304;28;19923;-80
2022/05/26 06:30:11;;;;;;;;;;;;;;;;;;2094614;28;19917;-81
2022/05/26 06:31:12;;;;;;;;;;;;;;;;;;2092706;28;20183;-81
2022/05/26 06:37:31;;;;;;;;;;;;;;;;;;2092722;28;19916;-81
2022/05/26 06:38:31;;;;;;;;;;;;;;;;;;2092106;28;20116;-79
2022/05/26 06:39:32;;;;;;;;;;;;;;;;;;2094486;28;19912;-85
2022/05/26 06:40:34;;;;;;;;;;;;;;;;;;2092601;28;20274;-84
2022/05/26 06:42:55;;;;;;;;;;;;;;;;;;2085910;28;20300;-81
2022/05/26 06:43:55;;;;;;;;;;;;;;;;;;2085747;28;19913;-82
2022/05/26 06:44:55;;;;;;;;;;;;;;;;;;2084151;28;19928;-82
2022/05/26 06:45:56;;;;;;;;;;;;;;;;;;2096123;28;19912;-82
2022/05/26 06:46:56;;;;;;;;;;;;;;;;;;2092402;28;20376;-81
2022/05/26 06:47:56;;;;;;;;;;;;;;;;;;2093527;28;19925;-82
2022/05/26 06:48:57;;;;;;;;;;;;;;;;;;2085560;28;19924;-80
2022/05/26 06:49:57;;;;;;;;;;;;;;;;;;2085203;28;19913;-81
2022/05/26 06:50:58;;;;;;;;;;;;;;;;;;2094245;28;19931;-82
2022/05/26 06:51:58;;;;;;;;;;;;;;;;;;2087217;28;19947;-82
2022/05/26 06:52:58;;;;;;;;;;;;;;;;;;2084088;28;19984;-81
2022/05/26 06:53:59;;;;;;;;;;;;;;;;;;2083533;28;19916;-81
2022/05/26 06:55:01;;;;;;;;;;;;;;;;;;2087422;28;19924;-82
2022/05/26 06:56:02;;;;;;;;;;;;;;;;;;2092582;28;19919;-81
2022/05/26 06:57:03;;;;;;;;;;;;;;;;;;2083458;28;20397;-81
2022/05/26 06:58:03;;;;;;;;;;;;;;;;;;2089486;28;20388;-81
2022/05/26 06:59:04;;;;;;;;;;;;;;;;;;2089571;28;19912;-82
2022/05/26 07:00:05;;;;;;;;;;;;;;;;;;2088836;28;19913;-82
2022/05/26 07:01:06;;;;;;;;;;;;;;;;;;2097568;28;19913;-80
2022/05/26 07:02:07;;;;;;;;;;;;;;;;;;2097488;28;20369;-81
2022/05/26 07:03:08;;;;;;;;;;;;;;;;;;2098026;28;19912;-81
2022/05/26 07:04:08;;;;;;;;;;;;;;;;;;2098192;28;20404;-81
2022/05/26 07:05:10;;;;;;;;;;;;;;;;;;2098183;28;19939;-82
2022/05/26 07:06:18;;;;;;;;;;;;;;;;;;2098418;28;19913;-81
2022/05/26 07:07:18;;;;;;;;;;;;;;;;;;2089340;28;19925;-80
2022/05/26 07:08:19;;;;;;;;;;;;;;;;;;2089411;28;19916;-81
2022/05/26 07:09:20;;;;;;;;;;;;;;;;;;2098147;28;19923;-82
2022/05/26 07:10:21;;;;;;;;;;;;;;;;;;2098084;28;19916;-80
2022/05/26 07:11:21;;;;;;;;;;;;;;;;;;2097978;28;20391;-81
2022/05/26 07:12:27;;;;;;;;;;;;;;;;;;2098416;28;20353;-84
2022/05/26 07:13:29;;;;;;;;;;;;;;;;;;2098433;28;19924;-77
2022/05/26 07:14:29;;;;;;;;;;;;;;;;;;2089153;28;19920;-81
2022/05/26 07:15:30;;;;;;;;;;;;;;;;;;2088683;28;20068;-80
2022/05/26 07:16:30;;;;;;;;;;;;;;;;;;2097639;28;19951;-81
2022/05/26 07:17:30;;;;;;;;;;;;;;;;;;2088845;28;20338;-84
2022/05/26 07:18:31;;;;;;;;;;;;;;;;;;2088666;28;19928;-84
2022/05/26 07:19:32;;;;;;;;;;;;;;;;;;2088627;28;20328;-81
2022/05/26 07:20:33;;;;;;;;;;;;;;;;;;2097199;28;19928;-81
2022/05/26 07:21:34;;;;;;;;;;;;;;;;;;2097482;28;20383;-81
2022/05/26 07:22:34;;;;;;;;;;;;;;;;;;2097299;28;19912;-83
2022/05/26 07:23:34;;;;;;;;;;;;;;;;;;2097304;28;19935;-81
2022/05/26 07:24:38;;;;;;;;;;;;;;;;;;2097452;28;20305;-81
2022/05/26 07:25:39;;;;;;;;;;;;;;;;;;2097317;28;19919;-83
2022/05/26 07:26:40;;;;;;;;;;;;;;;;;;2097252;28;19922;-81